Time;durP1;ratioP1;P1;durP2;ratioP2;P2;SDS_P1;SDS_P2;PMS_P1;PMS_P2;Temp;Humidity;BMP_temperature;BMP_pressure;BME280_temperature;BME280_humidity;BME280_pressure;Samples;Min_cycle;Max_cycle;Signal;HPM_P1;HPM_P2
2021/05/04 00:00:54;;;;;;;3.33;2.60;;;12.40;62.00;;;13.15;41.06;99439.97;6209778;23;20016;-82
2021/05/04 00:03:20;;;;;;;4.32;2.90;;;12.30;61.60;;;13.16;40.69;99444.34;6211435;23;19997;-82
2021/05/04 00:05:46;;;;;;;4.75;2.53;;;12.40;61.40;;;13.17;41.14;99428.31;6185271;23;20025;-79
2021/05/04 00:08:12;;;;;;;5.00;2.92;;;12.40;61.50;;;13.27;41.27;99421.09;6210021;23;20053;-84
2021/05/04 00:10:38;;;;;;;3.88;2.63;;;12.30;61.90;;;13.31;40.65;99421.88;6210590;23;20029;-81
2021/05/04 00:13:04;;;;;;;4.63;3.10;;;12.40;61.50;;;13.19;40.51;99409.13;6211012;23;20024;-83
2021/05/04 00:15:30;;;;;;;4.07;2.85;;;12.40;61.40;;;13.27;40.81;99393.03;6211304;23;20013;-81
2021/05/04 00:17:55;;;;;;;3.88;2.83;;;12.40;61.60;;;13.26;40.70;99385.84;6206504;23;20005;-83
2021/05/04 00:20:21;;;;;;;7.70;3.00;;;12.40;61.80;;;13.06;41.06;99371.47;6160070;23;20040;-81
2021/05/04 00:22:47;;;;;;;5.57;2.78;;;12.40;61.50;;;13.12;40.88;99383.91;6184618;23;20040;-83
2021/05/04 00:25:14;;;;;;;5.07;2.60;;;12.40;61.20;;;13.22;41.22;99374.66;6186960;23;20009;-83
2021/05/04 00:27:39;;;;;;;4.90;2.50;;;12.30;61.60;;;13.28;40.85;99372.22;6199337;23;20060;-79
2021/05/04 00:30:07;;;;;;;4.20;2.25;;;12.40;61.70;;;13.40;40.83;99344.53;6205862;23;20005;-82
2021/05/04 00:32:33;;;;;;;6.93;2.63;;;12.30;61.60;;;13.15;40.68;99358.66;6185817;23;20009;-80
2021/05/04 00:34:58;;;;;;;5.35;2.28;;;12.40;61.40;;;13.24;40.85;99332.19;6185887;23;20009;-80
2021/05/04 00:37:24;;;;;;;4.82;2.85;;;12.40;61.60;;;13.28;40.64;99338.56;6185682;23;20005;-82
2021/05/04 00:39:50;;;;;;;3.88;2.53;;;12.40;61.90;;;13.13;40.74;99333.03;6159024;23;20385;-81
2021/05/04 00:42:16;;;;;;;6.22;2.38;;;12.30;61.80;;;13.13;40.75;99324.59;6183291;23;20092;-83
2021/05/04 00:44:42;;;;;;;5.20;2.55;;;12.30;61.60;;;13.23;40.99;99299.75;6185309;23;20012;-83
2021/05/04 00:47:08;;;;;;;4.88;2.67;;;12.30;61.80;;;13.17;40.76;99305.78;6185295;23;20005;-84
2021/05/04 00:49:34;;;;;;;3.05;2.03;;;12.40;62.00;;;13.28;41.23;99290.91;6185521;23;20458;-80
2021/05/04 00:52:00;;;;;;;4.07;2.80;;;12.40;62.00;;;13.00;41.67;99287.00;6184875;23;20005;-81
2021/05/04 00:54:27;;;;;;;3.42;2.00;;;12.30;62.10;;;13.18;41.47;99270.13;6159146;23;20371;-82
2021/05/04 00:56:55;;;;;;;8.13;2.60;;;12.30;62.30;;;13.15;41.35;99266.16;6159201;23;20093;-79
2021/05/04 00:59:25;;;;;;;6.07;2.42;;;12.40;62.10;;;13.18;41.22;99242.09;6186088;23;20009;-82
2021/05/04 01:01:55;;;;;;;6.45;2.92;;;12.30;62.30;;;13.16;41.52;99238.94;6186229;23;20009;-84
2021/05/04 01:04:22;;;;;;;5.00;2.40;;;12.30;62.70;;;13.02;41.82;99239.75;6159862;23;20008;-83
2021/05/04 01:06:50;;;;;;;2.53;2.10;;;12.20;62.80;;;13.11;41.44;99214.09;6186647;23;20012;-84
2021/05/04 01:09:17;;;;;;;5.32;2.38;;;12.20;62.70;;;13.13;41.72;99204.06;6186468;23;20092;-81
2021/05/04 01:11:46;;;;;;;2.97;2.33;;;12.30;62.80;;;13.15;41.19;99210.09;6185560;23;20001;-81
2021/05/04 01:14:14;;;;;;;3.33;2.40;;;12.30;62.30;;;13.21;41.46;99196.44;6158627;23;20012;-83
2021/05/04 01:16:54;;;;;;;2.85;2.15;;;12.30;62.30;;;13.16;41.73;99180.06;6185049;23;20002;-81
2021/05/04 01:19:22;;;;;;;5.18;2.10;;;12.40;62.60;;;13.13;41.74;99180.88;6190811;23;20339;-79
2021/05/04 01:21:50;;;;;;;3.38;2.50;;;12.30;62.60;;;13.13;41.47;99176.03;6185333;23;20008;-81
2021/05/04 01:24:17;;;;;;;5.28;1.88;;;12.40;62.30;;;13.16;41.49;99154.81;6186123;23;20005;-84
2021/05/04 01:26:46;;;;;;;5.28;2.40;;;12.40;62.30;;;13.24;41.84;99158.34;6186304;23;20012;-80
2021/05/04 01:29:14;;;;;;;3.45;2.20;;;12.40;62.50;;;13.09;42.05;99133.25;6184979;23;20084;-82
2021/05/04 01:31:41;;;;;;;4.00;2.53;;;12.30;62.40;;;13.18;41.71;99127.16;6184885;23;20001;-82
2021/05/04 01:34:11;;;;;;;3.90;2.60;;;12.40;62.50;;;13.07;41.81;99121.59;6183193;23;20087;-83
2021/05/04 01:36:37;;;;;;;5.22;2.10;;;12.40;62.40;;;13.15;41.75;99117.59;6185810;23;20001;-81
2021/05/04 01:39:10;;;;;;;3.70;1.80;;;12.40;62.50;;;13.15;41.63;99120.38;6159572;23;20151;-81
2021/05/04 01:41:37;;;;;;;2.58;1.95;;;12.40;62.60;;;13.28;41.36;99119.88;6185521;23;20021;-81
2021/05/04 01:44:07;;;;;;;6.50;2.50;;;12.40;62.40;;;13.35;41.29;99114.22;6184582;23;20040;-81
2021/05/04 01:46:34;;;;;;;5.20;1.77;;;12.50;62.40;;;13.34;41.06;99118.22;6185129;23;20016;-83
2021/05/04 01:49:07;;;;;;;5.03;1.90;;;12.40;62.10;;;13.27;41.28;99109.88;6185089;23;20012;-79
2021/05/04 01:51:37;;;;;;;3.83;1.80;;;12.50;61.90;;;13.38;41.24;99107.78;6165393;23;20005;-82
2021/05/04 01:54:04;;;;;;;4.93;1.95;;;12.60;61.90;;;13.31;41.27;99103.03;6185044;23;20020;-83
2021/05/04 01:56:30;;;;;;;5.28;1.92;;;12.60;61.80;;;13.34;41.06;99082.59;6208354;23;19997;-82
2021/05/04 01:59:01;;;;;;;3.70;1.55;;;12.60;61.60;;;13.29;41.35;99083.03;6185096;23;20019;-83
2021/05/04 02:01:27;;;;;;;4.88;1.60;;;12.60;61.80;;;13.32;41.75;99071.00;6183110;23;20465;-79
2021/05/04 02:03:53;;;;;;;2.05;1.63;;;12.50;62.40;;;13.19;41.47;99061.50;6184817;23;20028;-83
2021/05/04 02:06:19;;;;;;;4.75;1.90;;;12.40;62.50;;;13.32;41.57;99068.19;6183204;23;20411;-81
2021/05/04 02:08:44;;;;;;;2.53;1.63;;;12.50;62.50;;;13.30;41.85;99067.78;6184032;23;20155;-82
2021/05/04 02:11:10;;;;;;;6.47;1.95;;;12.40;62.40;;;13.43;41.21;99065.25;6184870;23;20056;-82
2021/05/04 02:13:36;;;;;;;4.05;1.92;;;12.40;62.30;;;13.35;41.56;99060.94;6184456;23;20010;-82
2021/05/04 02:16:03;;;;;;;3.20;1.70;;;12.50;62.40;;;13.22;41.77;99038.25;6184500;23;20479;-81
2021/05/04 02:18:28;;;;;;;2.92;2.00;;;12.50;62.60;;;13.30;41.84;99047.34;6184535;23;20004;-83
2021/05/04 02:20:54;;;;;;;5.53;1.77;;;12.40;63.00;;;13.33;41.94;99040.91;6183974;23;20068;-81
2021/05/04 02:23:20;;;;;;;3.80;1.60;;;12.40;63.00;;;13.31;41.80;99016.13;6184575;23;20069;-82
2021/05/04 02:25:50;;;;;;;2.80;1.50;;;12.40;63.10;;;13.34;42.13;99045.31;6184581;23;20001;-81
2021/05/04 02:28:16;;;;;;;3.72;1.83;;;12.50;63.10;;;13.47;40.52;99030.38;6183322;23;20450;-81
2021/05/04 02:30:43;;;;;;;2.95;1.38;;;12.50;61.50;;;13.28;41.50;98999.34;6182854;23;20047;-83
2021/05/04 02:33:09;;;;;;;5.03;1.90;;;12.50;62.10;;;13.25;42.06;99016.97;6185896;23;20013;-83
2021/05/04 02:35:35;;;;;;;9.45;2.10;;;12.50;62.90;;;13.24;41.91;99043.41;6185779;23;20280;-83
2021/05/04 02:38:01;;;;;;;17.80;2.70;;;12.50;62.40;;;13.30;41.83;99036.94;6185272;23;20001;-84
2021/05/04 02:40:27;;;;;;;9.52;1.85;;;12.50;62.50;;;13.08;43.18;99036.34;6185618;23;20009;-85
2021/05/04 02:42:52;;;;;;;5.40;1.75;;;12.40;64.20;;;12.84;45.18;99048.53;6205178;23;20028;-81
2021/05/04 02:45:18;;;;;;;7.65;1.80;;;12.20;66.50;;;12.60;47.80;99022.28;6195753;23;20064;-80
2021/05/04 02:47:44;;;;;;;5.35;1.70;;;12.00;70.00;;;12.33;48.53;99028.88;6184959;23;20020;-81
2021/05/04 02:50:11;;;;;;;2.28;1.58;;;11.70;72.70;;;12.20;50.94;99036.16;6182413;23;20011;-81
2021/05/04 02:52:37;;;;;;;4.50;2.17;;;11.50;76.70;;;12.04;51.26;99039.44;6182524;23;20013;-80
2021/05/04 02:55:41;;;;;;;7.57;1.55;;;11.30;80.90;;;11.89;52.86;99043.47;6183809;23;20339;-81
2021/05/04 02:58:07;;;;;;;3.33;1.50;;;11.10;87.10;;;11.63;55.67;99044.72;6183836;23;20005;-81
2021/05/04 03:00:33;;;;;;;2.97;1.58;;;10.90;95.60;;;11.33;57.68;99036.81;6184035;23;20443;-81
2021/05/04 03:02:59;;;;;;;2.38;1.67;;;10.70;99.90;;;11.19;59.13;99031.25;6184256;23;20421;-82
2021/05/04 03:05:25;;;;;;;3.20;2.03;;;10.50;99.90;;;11.00;60.54;99028.88;6183881;23;20012;-82
2021/05/04 03:07:51;;;;;;;5.05;1.98;;;10.30;99.90;;;10.71;62.23;99036.44;6184049;23;20094;-83
2021/05/04 03:10:17;;;;;;;2.40;1.70;;;10.10;99.90;;;10.51;64.90;99021.28;6181899;23;20005;-81
2021/05/04 03:12:43;;;;;;;5.45;1.40;;;9.90;99.90;;;10.33;66.98;99026.84;6184270;23;20013;-83
2021/05/04 03:15:12;;;;;;;2.95;1.25;;;9.60;99.90;;;10.10;67.72;99028.31;6182339;23;20044;-82
2021/05/04 03:17:41;;;;;;;3.22;1.60;;;9.40;99.90;;;9.95;70.58;99024.69;6207387;23;20032;-83
2021/05/04 03:20:09;;;;;;;4.53;1.80;;;9.20;99.90;;;9.90;71.31;99028.66;6181611;23;20512;-79
2021/05/04 03:22:35;;;;;;;2.67;1.50;;;9.10;99.90;;;9.79;71.50;99024.25;6183869;23;20488;-80
2021/05/04 03:25:00;;;;;;;4.80;1.85;;;9.00;99.90;;;9.67;73.29;99017.00;6181780;23;20015;-80
2021/05/04 03:27:26;;;;;;;6.57;1.75;;;8.90;99.90;;;9.60;73.89;99013.41;6207619;23;20043;-80
2021/05/04 03:29:52;;;;;;;4.13;2.05;;;8.80;99.90;;;9.53;75.37;99000.22;6183018;23;20372;-78
2021/05/04 03:32:18;;;;;;;4.60;1.80;;;8.70;99.90;;;9.31;76.78;99004.09;6207031;23;20028;-79
2021/05/04 03:34:44;;;;;;;9.85;1.80;;;8.60;99.90;;;9.23;76.83;99003.25;6181656;23;20009;-80
2021/05/04 03:37:09;;;;;;;4.03;1.50;;;8.60;99.90;;;9.30;76.29;98996.91;6207020;23;20012;-80
2021/05/04 03:39:35;;;;;;;4.70;1.85;;;8.50;99.90;;;9.24;77.51;98993.72;6181996;23;20013;-80
2021/05/04 03:42:02;;;;;;;5.32;1.58;;;8.50;99.90;;;9.22;77.82;98998.84;6181797;23;20467;-80
2021/05/04 03:44:28;;;;;;;7.50;1.70;;;8.50;99.90;;;9.18;77.62;98998.06;6184362;23;20005;-79
2021/05/04 03:46:54;;;;;;;4.20;1.50;;;8.40;99.90;;;9.16;77.92;98997.63;6182698;23;20350;-81
2021/05/04 03:49:20;;;;;;;3.38;1.75;;;8.40;99.90;;;9.12;77.89;98984.88;6183795;23;20001;-78
2021/05/04 03:51:46;;;;;;;4.25;1.33;;;8.30;99.90;;;9.18;78.57;98980.53;6181224;23;20009;-80
2021/05/04 03:54:11;;;;;;;2.70;1.80;;;8.40;99.90;;;9.09;79.79;98980.06;6206988;23;20005;-80
2021/05/04 03:56:37;;;;;;;4.63;1.73;;;8.30;99.90;;;8.97;81.16;98982.00;6207281;23;20062;-79
2021/05/04 03:59:03;;;;;;;4.47;2.05;;;8.20;99.90;;;8.91;81.51;98980.75;6183655;23;20020;-80
2021/05/04 04:01:31;;;;;;;3.47;1.77;;;8.20;99.90;;;8.90;82.12;98987.50;6206991;23;20038;-82
2021/05/04 04:03:57;;;;;;;2.50;1.70;;;8.10;99.90;;;8.82;82.62;98996.22;6182744;23;20063;-80
2021/05/04 04:06:23;;;;;;;9.95;2.53;;;8.10;99.90;;;8.70;84.39;98980.59;6184133;23;20084;-79
2021/05/04 04:08:50;;;;;;;6.78;1.95;;;8.10;99.90;;;8.76;84.10;99001.34;6182595;23;20481;-78
2021/05/04 04:11:16;;;;;;;4.63;2.17;;;8.00;99.90;;;8.80;83.79;98977.09;6184387;23;20005;-80
2021/05/04 04:13:42;;;;;;;4.05;2.28;;;8.00;99.90;;;8.77;84.56;98979.84;6185324;23;20090;-81
2021/05/04 04:16:08;;;;;;;4.18;2.20;;;8.00;99.90;;;8.50;86.43;98957.00;6184642;23;20001;-80
2021/05/04 04:18:33;;;;;;;4.53;2.47;;;8.00;99.90;;;8.68;85.17;98968.25;6208277;23;20012;-80
2021/05/04 04:20:59;;;;;;;4.60;2.03;;;8.00;99.90;;;8.65;85.89;98958.69;6182734;23;20013;-78
2021/05/04 04:23:25;;;;;;;3.53;1.90;;;7.90;99.90;;;8.59;84.56;98951.91;6185182;23;20013;-81
2021/05/04 04:25:51;;;;;;;2.33;1.92;;;7.90;99.90;;;8.64;85.62;98959.88;6208411;23;20043;-79
2021/05/04 04:28:17;;;;;;;3.10;2.22;;;7.90;99.90;;;8.70;85.02;98949.97;6209447;23;20009;-82
2021/05/04 04:30:43;;;;;;;8.00;2.10;;;8.00;99.90;;;8.73;84.30;98940.06;6207290;23;20016;-81
2021/05/04 04:33:09;;;;;;;3.30;1.83;;;8.00;99.90;;;8.75;83.95;98941.28;6183742;23;20005;-82
2021/05/04 04:35:36;;;;;;;2.67;2.40;;;8.00;99.90;;;8.75;83.83;98944.06;6186780;23;20008;-82
2021/05/04 04:38:02;;;;;;;4.97;1.95;;;7.90;99.90;;;8.80;83.35;98943.69;6188602;23;20024;-81
2021/05/04 04:40:28;;;;;;;3.63;1.80;;;7.90;99.90;;;8.77;82.23;98936.13;6186167;23;20019;-79
2021/05/04 04:42:54;;;;;;;2.28;1.65;;;8.00;99.90;;;8.83;81.64;98933.78;6189497;23;20016;-80
2021/05/04 04:45:20;;;;;;;3.70;1.88;;;8.00;99.90;;;8.67;82.73;98934.06;6185263;23;20044;-82
2021/05/04 04:47:45;;;;;;;2.20;1.90;;;8.10;99.90;;;8.84;81.95;98932.59;6209747;23;20324;-78
2021/05/04 04:50:18;;;;;;;4.22;2.15;;;8.10;99.90;;;8.87;81.12;98932.59;6187595;23;20012;-82
2021/05/04 04:52:44;;;;;;;3.80;2.28;;;8.10;99.90;;;8.80;81.37;98904.72;6188126;23;20009;-81
2021/05/04 04:55:10;;;;;;;2.92;1.83;;;8.10;99.90;;;8.77;81.94;98888.78;6187002;23;20005;-81
2021/05/04 04:57:36;;;;;;;4.47;2.15;;;8.10;99.90;;;8.85;81.13;98896.03;6212308;23;19997;-77
2021/05/04 05:00:04;;;;;;;4.07;1.85;;;8.10;99.90;;;8.83;81.55;98897.59;6212604;23;20001;-77
2021/05/04 05:02:29;;;;;;;2.17;1.80;;;8.10;99.90;;;8.83;81.22;98889.25;6235414;23;20021;-82
2021/05/04 05:04:56;;;;;;;2.65;1.50;;;8.10;99.90;;;8.86;80.75;98897.59;6196893;23;20029;-82
2021/05/04 05:07:22;;;;;;;3.28;1.70;;;8.10;99.90;;;8.98;78.63;98899.28;6196690;23;20008;-79
2021/05/04 05:09:48;;;;;;;5.60;1.80;;;8.20;99.90;;;8.92;78.31;98873.78;6205410;23;20044;-80
2021/05/04 05:12:14;;;;;;;1.88;1.50;;;8.20;99.90;;;9.11;77.69;98867.13;6186618;23;20012;-82
2021/05/04 05:14:41;;;;;;;3.45;2.00;;;8.30;99.90;;;9.19;76.66;98865.13;6186935;23;20178;-81
2021/05/04 05:17:07;;;;;;;3.17;1.60;;;8.40;99.90;;;9.32;75.72;98861.63;6210495;23;20020;-82
2021/05/04 05:19:33;;;;;;;5.78;1.50;;;8.50;99.90;;;9.37;75.38;98860.44;6212041;23;20431;-81
2021/05/04 05:22:01;;;;;;;5.30;2.20;;;8.60;99.90;;;9.34;74.52;98848.06;6185504;23;20007;-80
2021/05/04 05:24:28;;;;;;;2.47;1.58;;;8.60;99.90;;;9.31;74.00;98862.78;6186134;23;20059;-78
2021/05/04 05:26:54;;;;;;;2.72;1.63;;;8.60;99.90;;;9.44;73.64;98866.81;6209602;23;20031;-78
2021/05/04 05:29:20;;;;;;;3.53;1.52;;;8.70;99.90;;;9.41;73.39;98852.88;6187507;23;20064;-78
2021/05/04 05:31:46;;;;;;;2.90;1.58;;;8.70;99.90;;;9.36;73.69;98842.94;6186907;23;20001;-78
2021/05/04 05:34:12;;;;;;;1.98;1.73;;;8.70;99.90;;;9.43;73.45;98822.66;6186157;23;20068;-78
2021/05/04 05:36:38;;;;;;;2.85;1.50;;;8.80;99.90;;;9.50;73.29;98831.03;6186493;23;20012;-77
2021/05/04 05:39:05;;;;;;;3.13;1.42;;;8.80;99.90;;;9.53;73.33;98819.88;6184940;23;20347;-81
2021/05/04 05:41:31;;;;;;;4.32;1.40;;;8.80;99.90;;;9.54;71.51;98817.88;6207950;23;20057;-78
2021/05/04 05:43:57;;;;;;;3.40;1.48;;;8.80;99.90;;;9.54;72.37;98817.88;6207997;23;20009;-78
2021/05/04 05:46:22;;;;;;;3.22;1.50;;;8.90;99.90;;;9.56;71.39;98820.28;6209193;23;20009;-78
2021/05/04 05:48:50;;;;;;;2.15;1.42;;;8.90;99.90;;;9.65;72.12;98824.28;6208454;23;20013;-78
2021/05/04 05:51:16;;;;;;;2.95;1.40;;;8.80;99.90;;;9.67;72.04;98807.94;6208755;23;20016;-77
2021/05/04 05:53:42;;;;;;;4.38;1.55;;;8.90;99.90;;;9.49;73.51;98826.63;6182503;23;20001;-80
2021/05/04 05:56:08;;;;;;;3.97;1.50;;;8.80;99.90;;;9.51;73.87;98835.38;6185948;23;20005;-78
2021/05/04 05:58:34;;;;;;;1.63;1.52;;;8.80;99.90;;;9.32;75.28;98805.09;6183827;23;20001;-79
2021/05/04 06:01:00;;;;;;;3.42;1.42;;;8.80;99.90;;;9.44;75.60;98832.59;6185295;23;20130;-78
2021/05/04 06:03:28;;;;;;;5.55;1.67;;;8.70;99.90;;;9.36;76.37;98823.44;6209047;23;20509;-77
2021/05/04 06:05:55;;;;;;;3.20;1.80;;;8.70;99.90;;;9.22;78.35;98812.22;6186242;23;20439;-80
2021/05/04 06:08:22;;;;;;;2.15;1.40;;;8.60;99.90;;;8.97;79.72;98814.13;6208714;23;20443;-78
2021/05/04 06:10:48;;;;;;;2.80;1.40;;;8.40;99.90;;;9.02;80.26;98808.22;6184948;23;20006;-82
2021/05/04 06:13:14;;;;;;;2.72;1.70;;;8.30;99.90;;;8.89;81.52;98829.22;6185741;23;20095;-79
2021/05/04 06:15:40;;;;;;;5.10;1.90;;;8.20;99.90;;;8.94;81.64;98823.28;6186479;23;20009;-80
2021/05/04 06:18:07;;;;;;;1.75;1.42;;;8.20;99.90;;;8.90;81.49;98808.53;6186967;23;20001;-80
2021/05/04 06:20:34;;;;;;;4.90;1.80;;;8.20;99.90;;;8.86;80.94;98810.53;6210564;23;20008;-78
2021/05/04 06:23:01;;;;;;;2.75;1.52;;;8.20;99.90;;;8.91;81.21;98801.78;6210578;23;20020;-79
2021/05/04 06:25:28;;;;;;;2.58;1.63;;;8.20;99.90;;;8.92;79.99;98798.63;6187369;23;20008;-79
2021/05/04 06:27:54;;;;;;;3.03;1.95;;;8.30;99.90;;;9.12;79.57;98789.94;6211210;23;20012;-79
2021/05/04 06:30:21;;;;;;;2.90;1.77;;;8.30;99.90;;;9.23;78.86;98782.41;6187030;23;20419;-78
2021/05/04 06:32:52;;;;;;;2.70;1.80;;;8.40;99.90;;;9.09;78.28;98796.28;6185764;23;20029;-78
2021/05/04 06:35:19;;;;;;;2.25;1.33;;;8.50;99.90;;;9.30;77.53;98790.78;6187201;23;20430;-76
2021/05/04 06:37:49;;;;;;;5.53;1.40;;;8.50;99.90;;;9.34;77.54;98789.56;6185763;23;20063;-79
2021/05/04 06:40:15;;;;;;;3.47;1.70;;;8.60;99.90;;;9.50;76.82;98776.06;6210318;23;20060;-78
2021/05/04 06:42:42;;;;;;;4.40;1.67;;;8.60;99.90;;;9.59;75.17;98766.53;6211134;23;20451;-78
2021/05/04 06:45:08;;;;;;;2.40;1.67;;;8.90;99.90;;;9.81;74.94;98757.00;6186680;23;20421;-78
2021/05/04 06:47:34;;;;;;;3.30;1.38;;;9.00;99.90;;;9.99;73.21;98760.56;6186573;23;20009;-78
2021/05/04 06:50:01;;;;;;;5.78;1.40;;;9.10;99.90;;;10.11;72.18;98764.94;6184473;23;20009;-77
2021/05/04 06:52:26;;;;;;;1.20;1.10;;;9.20;99.90;;;10.16;71.97;98768.16;6209871;23;20013;-77
2021/05/04 06:54:52;;;;;;;2.50;1.23;;;9.30;99.90;;;10.31;71.36;98761.34;6186732;23;20012;-80
2021/05/04 06:57:19;;;;;;;7.30;1.38;;;9.40;99.90;;;10.44;70.89;98762.50;6210248;23;20005;-77
2021/05/04 06:59:45;;;;;;;2.85;1.00;;;9.50;99.90;;;10.49;70.01;98755.72;6186025;23;20005;-79
2021/05/04 07:02:11;;;;;;;2.00;1.30;;;9.60;99.90;;;10.61;69.59;98760.88;6186128;23;20012;-80
2021/05/04 07:04:36;;;;;;;1.98;1.10;;;9.70;99.90;;;10.55;70.00;98760.50;6185836;23;20037;-80
2021/05/04 07:07:04;;;;;;;1.38;1.10;;;9.80;99.90;;;10.61;69.68;98768.44;6186858;23;20008;-79
2021/05/04 07:09:29;;;;;;;2.03;1.35;;;9.80;99.90;;;10.53;70.55;98773.28;6186513;23;20001;-78
2021/05/04 07:11:55;;;;;;;2.50;1.17;;;9.80;99.90;;;10.41;72.45;98784.84;6186632;23;20016;-79
2021/05/04 07:14:21;;;;;;;2.35;1.10;;;9.70;99.90;;;10.13;74.44;98768.91;6186824;23;20051;-77
2021/05/04 07:16:49;;;;;;;2.35;1.35;;;9.50;99.90;;;10.15;76.41;98765.75;6185925;23;20080;-78
2021/05/04 07:19:16;;;;;;;4.10;1.50;;;9.30;99.90;;;9.88;76.89;98768.94;6195173;23;20009;-80
2021/05/04 07:21:43;;;;;;;3.97;1.45;;;9.20;99.90;;;9.87;76.79;98763.75;6184750;23;20017;-79
2021/05/04 07:24:10;;;;;;;2.65;1.50;;;9.10;99.90;;;9.86;77.19;98751.81;6210549;23;20061;-79
2021/05/04 07:26:39;;;;;;;2.00;1.30;;;9.10;99.90;;;9.88;77.30;98760.59;6184813;23;20079;-79
2021/05/04 07:29:05;;;;;;;1.35;1.20;;;9.10;99.90;;;9.84;78.04;98761.75;6200621;23;20000;-79
2021/05/04 07:31:31;;;;;;;5.35;1.52;;;9.00;99.90;;;9.74;78.26;98743.84;6203285;23;20005;-78
2021/05/04 07:33:57;;;;;;;6.55;1.95;;;9.00;99.90;;;9.56;79.00;98759.78;6185239;23;20009;-80
2021/05/04 07:36:25;;;;;;;1.77;1.45;;;8.90;99.90;;;9.53;80.04;98750.19;6217073;23;20009;-77
2021/05/04 07:39:11;;;;;;;4.85;1.40;;;8.90;99.90;;;9.74;79.42;98751.41;6190233;23;20009;-77
2021/05/04 07:42:12;;;;;;;3.90;1.35;;;9.00;99.90;;;9.64;79.10;98739.06;6211295;23;20009;-79
2021/05/04 07:45:38;;;;;;;2.10;1.60;;;9.00;99.90;;;9.64;78.60;98744.63;6210505;23;20009;-78
2021/05/04 07:48:39;;;;;;;3.10;1.77;;;9.00;99.90;;;9.95;77.73;98743.81;6212449;23;20114;-78
2021/05/04 07:51:42;;;;;;;2.53;1.63;;;9.00;99.90;;;9.87;78.76;98744.25;6211180;23;20386;-79
2021/05/04 07:54:56;;;;;;;2.35;1.58;;;9.20;99.90;;;9.70;81.73;98745.81;6182610;23;20001;-79
2021/05/04 07:57:46;;;;;;;2.53;1.60;;;9.10;99.90;;;9.65;82.20;98749.03;6207199;23;20096;-80
2021/05/04 08:00:52;;;;;;;4.40;1.63;;;9.00;99.90;;;9.73;82.25;98749.84;6209016;23;20020;-79
2021/05/04 08:04:05;;;;;;;3.05;1.80;;;8.90;99.90;;;9.70;81.09;98739.47;6207942;23;20059;-80
2021/05/04 08:07:18;;;;;;;;;;;;;;;;;;;;;
2021/05/04 08:10:01;;;;;;;2.65;1.80;;;9.00;99.90;;;9.79;82.25;98751.03;6196900;23;20040;-78
2021/05/04 08:13:02;;;;;;;;;;;;;;;;;;;;;
2021/05/04 08:16:05;;;;;;;2.10;1.60;;;9.10;99.90;;;9.97;82.55;98751.81;6189225;23;20088;-77
2021/05/04 08:19:42;;;;;;;;;;;;;;;;;;;;;
2021/05/04 08:22:59;;;;;;;;;;;;;;;;;;;;;
2021/05/04 08:26:14;;;;;;;;;;;;;;;;;;;;;
2021/05/04 08:29:02;;;;;;;;;;;;;;;;;;;;;
2021/05/04 08:31:52;;;;;;;2.88;1.83;;;9.20;99.90;;;9.83;84.67;98763.75;6191933;23;20039;-79
2021/05/04 08:35:08;;;;;;;3.67;2.03;;;9.20;99.90;;;9.69;84.83;98752.63;6188973;23;20260;-79
2021/05/04 08:38:13;;;;;;;2.33;1.80;;;9.00;99.90;;;9.60;85.29;98743.06;6186602;23;20005;-80
2021/05/04 08:45:05;;;;;;;3.42;1.80;;;9.00;99.90;;;9.81;84.04;98729.09;6185892;23;20374;-79
2021/05/04 08:48:51;;;;;;;5.05;2.30;;;9.00;99.90;;;10.21;83.69;98722.31;6211629;23;20016;-78
2021/05/04 08:52:05;;;;;;;2.35;1.63;;;9.20;99.90;;;10.50;82.15;98713.44;6119253;23;20392;-79
2021/05/04 08:54:51;;;;;;;4.45;1.80;;;9.60;99.90;;;10.63;82.28;98710.22;6169930;23;20016;-78
2021/05/04 08:57:48;;;;;;;2.15;1.38;;;9.90;99.90;;;10.95;80.29;98697.69;6214280;23;20501;-79
2021/05/04 09:00:47;;;;;;;2.67;1.83;;;10.10;99.90;;;11.20;78.83;98697.53;6215799;23;20013;-80
2021/05/04 09:04:08;;;;;;;3.50;1.30;;;10.40;99.90;;;12.60;71.80;98683.44;6190234;23;20402;-79
2021/05/04 09:06:51;;;;;;;5.13;1.20;;;11.40;99.90;;;12.66;71.58;98708.97;6164281;23;20343;-78
2021/05/04 09:09:27;;;;;;;6.63;1.50;;;11.90;99.90;;;12.73;70.62;98708.09;6216301;23;20335;-78
2021/05/04 09:22:44;;;;;;;4.43;1.23;;;12.00;99.90;;;12.56;70.33;98674.28;6191222;23;20015;-79
2021/05/04 09:25:39;;;;;;;4.03;1.08;;;11.90;99.90;;;12.29;71.29;98704.22;6212967;23;20032;-80
2021/05/04 09:28:16;;;;;;;2.20;0.98;;;11.60;99.90;;;12.37;70.92;98679.72;6193055;23;20012;-83
2021/05/04 09:30:57;;;;;;;1.98;0.90;;;11.50;99.90;;;12.30;70.46;98702.97;6188552;23;20009;-79
2021/05/04 09:33:25;;;;;;;3.60;1.00;;;11.60;99.90;;;12.32;72.07;98686.59;6187310;23;20028;-79
2021/05/04 09:35:51;;;;;;;4.32;1.60;;;11.50;99.90;;;11.88;74.93;98692.25;6211646;23;20009;-78
2021/05/04 09:38:19;;;;;;;2.50;1.42;;;11.20;99.90;;;11.80;77.69;98713.88;6188158;23;20067;-79
2021/05/04 09:40:48;;;;;;;3.28;1.50;;;11.00;99.90;;;11.30;79.61;98699.44;6189158;23;20067;-78
2021/05/04 09:43:23;;;;;;;4.18;1.45;;;10.70;99.90;;;11.08;80.91;98701.59;6212016;23;20016;-79
2021/05/04 09:45:56;;;;;;;4.72;2.20;;;10.50;99.90;;;10.93;81.90;98691.72;6214724;23;20087;-79
2021/05/04 09:48:34;;;;;;;2.42;1.52;;;10.20;99.90;;;10.95;83.48;98731.19;6209478;23;20020;-80
2021/05/04 09:51:18;;;;;;;3.20;2.10;;;10.20;99.90;;;10.78;84.65;98734.88;6190895;23;20078;-82
2021/05/04 09:56:40;;;;;;;3.53;1.88;;;10.00;99.90;;;10.75;86.37;98726.53;6200910;23;20012;-81
2021/05/04 09:59:08;;;;;;;8.23;2.50;;;9.90;99.90;;;10.64;87.58;98703.44;6165592;23;20009;-84
2021/05/04 10:01:39;;;;;;;1.17;1.08;;;9.80;99.90;;;10.66;85.93;98695.47;6165518;23;20028;-83
2021/05/04 10:04:06;;;;;;;4.80;2.20;;;9.80;99.90;;;10.76;87.31;98706.56;6159939;23;20099;-82
2021/05/04 10:06:32;;;;;;;2.28;1.60;;;9.90;99.90;;;10.94;86.77;98704.50;6160508;23;20033;-83
2021/05/04 10:09:02;;;;;;;3.05;1.77;;;10.00;99.90;;;11.16;86.81;98677.22;6163110;23;20016;-82
2021/05/04 10:12:01;;;;;;;3.13;1.80;;;10.30;99.90;;;11.39;84.15;98687.84;6165186;23;20001;-81
2021/05/04 10:15:14;;;;;;;2.63;1.60;;;10.60;99.90;;;12.20;80.74;98678.69;6188180;23;20087;-80
2021/05/04 10:18:12;;;;;;;3.80;1.45;;;11.20;99.90;;;12.81;78.54;98665.56;6192143;23;20005;-81
2021/05/04 10:20:46;;;;;;;3.38;1.48;;;11.90;99.90;;;12.62;77.57;98674.59;6190333;23;20076;-81
2021/05/04 10:23:30;;;;;;;3.20;1.60;;;11.90;99.90;;;12.92;76.97;98666.22;6166581;23;20035;-81
2021/05/04 10:26:37;;;;;;;6.38;1.58;;;12.00;99.90;;;13.52;76.14;98664.53;6165210;23;20008;-80
2021/05/04 10:29:43;;;;;;;2.75;1.35;;;12.50;99.90;;;13.32;72.54;98661.66;6187004;23;20023;-80
2021/05/04 10:33:49;;;;;;;2.88;1.30;;;12.60;99.90;;;13.00;73.77;98664.88;6158233;23;20367;-80
2021/05/04 10:38:15;;;;;;;4.13;1.50;;;12.20;99.90;;;13.32;70.58;98669.28;6131382;23;20087;-76
2021/05/04 10:41:46;;;;;;;5.18;1.75;;;12.70;99.90;;;13.81;70.57;98659.22;6075126;23;20084;-79
2021/05/04 10:44:57;;;;;;;7.60;1.65;;;13.00;99.90;;;14.74;67.18;98662.66;6178207;23;20080;-78
2021/05/04 10:48:31;;;;;;;3.50;1.25;;;13.70;99.90;;;14.55;66.47;98671.88;6185711;23;20005;-82
2021/05/04 10:52:06;;;;;;;;;;;;;;;;;;;;;
2021/05/04 10:54:54;;;;;;;3.47;1.40;;;13.60;99.90;;;14.16;68.31;98664.97;6193551;23;20029;-83
2021/05/04 10:57:20;;;;;;;6.15;2.08;;;13.40;99.90;;;14.59;67.88;98675.41;6189319;23;20009;-82
2021/05/04 10:59:46;;;;;;;5.35;1.70;;;13.70;99.90;;;14.71;67.22;98657.88;6159358;23;20288;-82
2021/05/04 11:02:26;;;;;;;2.83;1.30;;;14.00;99.90;;;14.01;67.96;98666.47;6158772;23;20005;-82
2021/05/04 11:04:55;;;;;;;5.13;1.60;;;13.50;99.90;;;13.43;68.73;98672.69;6159308;23;20091;-82
2021/05/04 11:08:00;;;;;;;9.40;1.83;;;13.00;99.90;;;12.84;73.22;98712.34;6160446;23;20005;-82
2021/05/04 11:10:27;;;;;;;4.10;1.77;;;12.40;99.90;;;12.08;76.66;98708.00;6158706;23;20450;-84
2021/05/04 11:12:55;;;;;;;6.88;1.55;;;11.60;99.90;;;11.98;79.36;98738.88;6185287;23;20016;-83
2021/05/04 11:15:30;;;;;;;7.10;1.90;;;11.30;99.90;;;11.64;79.57;98719.19;6185193;23;20012;-81
2021/05/04 11:17:56;;;;;;;6.68;1.70;;;11.00;99.90;;;11.87;80.04;98702.63;6185679;23;20019;-83
2021/05/04 11:20:48;;;;;;;7.75;2.30;;;11.10;99.90;;;12.84;76.49;98726.38;6184870;23;20013;-82
2021/05/04 11:23:14;;;;;;;12.25;2.42;;;11.70;99.90;;;13.19;73.64;98730.72;6155580;23;20012;-85